sensor_id;sensor_type;location;lat;lon;timestamp;pressure;altitude;pressure_sealevel;temperature;humidity
49943;BME280;36011;53.362;58.948;2022-12-07T00:02:19;99059.13;;;-23.91;60.92
49943;BME280;36011;53.362;58.948;2022-12-07T00:05:23;99054.13;;;-23.91;60.75
49943;BME280;36011;53.362;58.948;2022-12-07T00:08:24;99055.47;;;-23.86;60.75
49943;BME280;36011;53.362;58.948;2022-12-07T00:11:28;99048.41;;;-23.90;60.66
49943;BME280;36011;53.362;58.948;2022-12-07T00:14:30;99045.50;;;-23.86;60.70
49943;BME280;36011;53.362;58.948;2022-12-07T00:17:36;99036.72;;;-23.91;60.72
49943;BME280;36011;53.362;58.948;2022-12-07T00:20:37;99047.69;;;-23.89;60.85
49943;BME280;36011;53.362;58.948;2022-12-07T00:23:39;99045.63;;;-23.93;60.45
49943;BME280;36011;53.362;58.948;2022-12-07T00:26:42;99053.47;;;-23.97;60.52
49943;BME280;36011;53.362;58.948;2022-12-07T00:29:47;99048.19;;;-24.00;60.47
49943;BME280;36011;53.362;58.948;2022-12-07T00:32:51;99054.78;;;-24.01;60.69
49943;BME280;36011;53.362;58.948;2022-12-07T00:35:56;99058.56;;;-24.05;61.00
49943;BME280;36011;53.362;58.948;2022-12-07T00:39:01;99061.75;;;-24.06;60.79
49943;BME280;36011;53.362;58.948;2022-12-07T00:42:03;99039.72;;;-24.18;60.60
49943;BME280;36011;53.362;58.948;2022-12-07T00:45:04;99042.38;;;-24.17;60.46
49943;BME280;36011;53.362;58.948;2022-12-07T00:48:06;99045.25;;;-24.21;60.50
49943;BME280;36011;53.362;58.948;2022-12-07T00:51:09;99042.28;;;-24.26;60.45
49943;BME280;36011;53.362;58.948;2022-12-07T00:54:10;99040.53;;;-24.27;60.70
49943;BME280;36011;53.362;58.948;2022-12-07T00:57:11;99045.75;;;-24.32;60.47
49943;BME280;36011;53.362;58.948;2022-12-07T01:00:15;99038.72;;;-24.36;60.50
49943;BME280;36011;53.362;58.948;2022-12-07T01:03:18;99037.50;;;-24.40;60.57
49943;BME280;36011;53.362;58.948;2022-12-07T01:06:21;99046.56;;;-24.40;60.67
49943;BME280;36011;53.362;58.948;2022-12-07T01:09:22;99049.38;;;-24.37;60.79
49943;BME280;36011;53.362;58.948;2022-12-07T01:12:28;99044.88;;;-24.33;60.70
49943;BME280;36011;53.362;58.948;2022-12-07T01:15:30;99056.03;;;-24.29;60.88
49943;BME280;36011;53.362;58.948;2022-12-07T01:18:33;99046.81;;;-24.30;60.54
49943;BME280;36011;53.362;58.948;2022-12-07T01:21:35;99059.25;;;-24.30;60.58
49943;BME280;36011;53.362;58.948;2022-12-07T01:24:41;99052.03;;;-24.36;60.57
49943;BME280;36011;53.362;58.948;2022-12-07T01:27:42;99059.16;;;-24.39;60.44
49943;BME280;36011;53.362;58.948;2022-12-07T01:31:04;99054.63;;;-24.43;60.41
49943;BME280;36011;53.362;58.948;2022-12-07T01:34:23;99052.69;;;-24.45;60.42
49943;BME280;36011;53.362;58.948;2022-12-07T01:37:51;99061.63;;;-24.47;60.20
49943;BME280;36011;53.362;58.948;2022-12-07T01:40:56;99054.72;;;-24.50;60.30
49943;BME280;36011;53.362;58.948;2022-12-07T01:44:25;99056.66;;;-24.47;60.45
49943;BME280;36011;53.362;58.948;2022-12-07T01:47:27;99051.19;;;-24.52;60.19
49943;BME280;36011;53.362;58.948;2022-12-07T01:50:31;99066.41;;;-24.49;60.27
49943;BME280;36011;53.362;58.948;2022-12-07T01:53:36;99054.09;;;-24.56;60.34
49943;BME280;36011;53.362;58.948;2022-12-07T01:56:40;99062.41;;;-24.56;60.00
49943;BME280;36011;53.362;58.948;2022-12-07T01:59:44;99063.13;;;-24.57;60.47
49943;BME280;36011;53.362;58.948;2022-12-07T02:03:08;99060.16;;;-24.61;60.39
49943;BME280;36011;53.362;58.948;2022-12-07T02:06:12;99066.34;;;-24.58;60.54
49943;BME280;36011;53.362;58.948;2022-12-07T02:09:16;99066.75;;;-24.62;60.34
49943;BME280;36011;53.362;58.948;2022-12-07T02:12:18;99064.28;;;-24.62;60.65
49943;BME280;36011;53.362;58.948;2022-12-07T02:29:24;99066.97;;;-24.52;60.66
49943;BME280;36011;53.362;58.948;2022-12-07T02:36:02;99058.81;;;-24.51;60.47
49943;BME280;36011;53.362;58.948;2022-12-07T02:39:20;99060.56;;;-24.50;60.79
49943;BME280;36011;53.362;58.948;2022-12-07T02:42:31;99049.97;;;-24.56;60.83
49943;BME280;36011;53.362;58.948;2022-12-07T02:45:37;99053.75;;;-24.59;60.60
49943;BME280;36011;53.362;58.948;2022-12-07T02:48:41;99063.44;;;-24.54;61.07
49943;BME280;36011;53.362;58.948;2022-12-07T02:51:46;99069.88;;;-24.56;60.75
49943;BME280;36011;53.362;58.948;2022-12-07T02:54:47;99071.88;;;-24.60;60.91
49943;BME280;36011;53.362;58.948;2022-12-07T03:11:42;99068.25;;;-24.71;61.31
49943;BME280;36011;53.362;58.948;2022-12-07T03:14:51;99061.09;;;-24.68;60.72
49943;BME280;36011;53.362;58.948;2022-12-07T03:17:55;99050.16;;;-24.70;61.20
49943;BME280;36011;53.362;58.948;2022-12-07T03:21:02;99054.47;;;-24.76;60.73
49943;BME280;36011;53.362;58.948;2022-12-07T03:24:19;99061.44;;;-24.81;61.06
49943;BME280;36011;53.362;58.948;2022-12-07T03:27:27;99062.50;;;-24.79;60.81
49943;BME280;36011;53.362;58.948;2022-12-07T03:30:34;99060.88;;;-24.78;60.68
49943;BME280;36011;53.362;58.948;2022-12-07T03:33:47;99048.84;;;-24.82;60.71
49943;BME280;36011;53.362;58.948;2022-12-07T03:43:12;99066.16;;;-24.75;60.52
49943;BME280;36011;53.362;58.948;2022-12-07T03:47:22;99075.25;;;-24.76;60.60
49943;BME280;36011;53.362;58.948;2022-12-07T03:53:34;99063.09;;;-24.88;60.72
49943;BME280;36011;53.362;58.948;2022-12-07T03:56:37;99080.75;;;-24.78;60.81
49943;BME280;36011;53.362;58.948;2022-12-07T03:59:44;99076.50;;;-24.79;60.75
49943;BME280;36011;53.362;58.948;2022-12-07T04:02:46;99078.09;;;-24.80;60.67
49943;BME280;36011;53.362;58.948;2022-12-07T04:05:48;99074.59;;;-24.82;60.69
49943;BME280;36011;53.362;58.948;2022-12-07T04:08:50;99081.00;;;-24.84;60.30
49943;BME280;36011;53.362;58.948;2022-12-07T04:11:53;99086.84;;;-24.83;60.36
49943;BME280;36011;53.362;58.948;2022-12-07T04:15:00;99087.91;;;-24.81;60.82
49943;BME280;36011;53.362;58.948;2022-12-07T04:18:01;99091.03;;;-24.75;60.81
49943;BME280;36011;53.362;58.948;2022-12-07T04:21:03;99093.44;;;-24.68;60.76
49943;BME280;36011;53.362;58.948;2022-12-07T04:24:08;99084.84;;;-24.63;60.50
49943;BME280;36011;53.362;58.948;2022-12-07T04:27:13;99089.44;;;-24.59;60.27
49943;BME280;36011;53.362;58.948;2022-12-07T04:30:14;99097.94;;;-24.57;60.44
49943;BME280;36011;53.362;58.948;2022-12-07T04:33:15;99093.28;;;-24.54;60.52
49943;BME280;36011;53.362;58.948;2022-12-07T04:36:17;99105.00;;;-24.53;60.24
49943;BME280;36011;53.362;58.948;2022-12-07T04:39:25;99090.41;;;-24.50;60.14
49943;BME280;36011;53.362;58.948;2022-12-07T04:42:30;99087.81;;;-24.42;60.68
49943;BME280;36011;53.362;58.948;2022-12-07T04:45:34;99088.78;;;-24.33;60.08
49943;BME280;36011;53.362;58.948;2022-12-07T04:48:39;99088.59;;;-24.19;60.19
49943;BME280;36011;53.362;58.948;2022-12-07T04:51:40;99095.66;;;-24.15;60.04
49943;BME280;36011;53.362;58.948;2022-12-07T04:54:44;99102.41;;;-24.14;59.88
49943;BME280;36011;53.362;58.948;2022-12-07T04:57:46;99098.78;;;-24.09;59.98
49943;BME280;36011;53.362;58.948;2022-12-07T05:00:53;99099.56;;;-24.01;59.96
49943;BME280;36011;53.362;58.948;2022-12-07T05:03:54;99101.44;;;-23.91;59.79
49943;BME280;36011;53.362;58.948;2022-12-07T05:06:55;99106.59;;;-23.81;59.73
49943;BME280;36011;53.362;58.948;2022-12-07T05:09:56;99099.38;;;-23.71;59.71
49943;BME280;36011;53.362;58.948;2022-12-07T05:13:03;99098.09;;;-23.59;59.73
49943;BME280;36011;53.362;58.948;2022-12-07T05:16:05;99086.00;;;-23.47;59.70
49943;BME280;36011;53.362;58.948;2022-12-07T05:19:08;99096.22;;;-23.28;59.25
49943;BME280;36011;53.362;58.948;2022-12-07T05:22:13;99094.25;;;-23.15;59.29
49943;BME280;36011;53.362;58.948;2022-12-07T05:25:16;99099.00;;;-23.00;59.34
49943;BME280;36011;53.362;58.948;2022-12-07T05:28:17;99104.00;;;-22.83;59.33
49943;BME280;36011;53.362;58.948;2022-12-07T05:31:21;99095.41;;;-22.60;58.35
49943;BME280;36011;53.362;58.948;2022-12-07T05:34:25;99095.94;;;-22.30;58.57
49943;BME280;36011;53.362;58.948;2022-12-07T05:37:26;99098.69;;;-22.01;59.11
49943;BME280;36011;53.362;58.948;2022-12-07T05:40:29;99093.69;;;-21.92;58.26
49943;BME280;36011;53.362;58.948;2022-12-07T05:43:34;99094.00;;;-21.89;58.65
49943;BME280;36011;53.362;58.948;2022-12-07T05:46:35;99099.44;;;-21.84;58.37
49943;BME280;36011;53.362;58.948;2022-12-07T05:49:39;99104.13;;;-21.79;58.01
49943;BME280;36011;53.362;58.948;2022-12-07T05:52:46;99105.00;;;-21.69;58.04
49943;BME280;36011;53.362;58.948;2022-12-07T05:55:51;99102.03;;;-21.65;58.11
49943;BME280;36011;53.362;58.948;2022-12-07T05:58:55;99105.28;;;-21.58;58.42
49943;BME280;36011;53.362;58.948;2022-12-07T06:02:16;99107.06;;;-21.48;58.29
49943;BME280;36011;53.362;58.948;2022-12-07T06:05:18;99101.44;;;-21.37;58.82
49943;BME280;36011;53.362;58.948;2022-12-07T06:08:20;99103.44;;;-21.24;58.65
49943;BME280;36011;53.362;58.948;2022-12-07T06:11:21;99101.06;;;-21.14;58.49
49943;BME280;36011;53.362;58.948;2022-12-07T06:14:44;99096.03;;;-21.05;58.36
49943;BME280;36011;53.362;58.948;2022-12-07T06:17:53;99097.03;;;-20.94;58.66
49943;BME280;36011;53.362;58.948;2022-12-07T06:20:54;99106.25;;;-20.85;58.33
49943;BME280;36011;53.362;58.948;2022-12-07T06:23:59;99093.09;;;-20.73;58.25
49943;BME280;36011;53.362;58.948;2022-12-07T06:27:00;99086.41;;;-20.64;58.19
49943;BME280;36011;53.362;58.948;2022-12-07T06:30:05;99087.03;;;-20.48;58.21
49943;BME280;36011;53.362;58.948;2022-12-07T06:33:07;99080.03;;;-20.33;58.71
49943;BME280;36011;53.362;58.948;2022-12-07T06:36:11;99080.25;;;-20.21;57.76
49943;BME280;36011;53.362;58.948;2022-12-07T06:39:12;99066.06;;;-20.12;57.85
49943;BME280;36011;53.362;58.948;2022-12-07T06:42:16;99071.09;;;-20.02;57.92
49943;BME280;36011;53.362;58.948;2022-12-07T06:45:21;99058.66;;;-19.91;58.13
49943;BME280;36011;53.362;58.948;2022-12-07T06:48:25;99057.44;;;-19.86;57.94
49943;BME280;36011;53.362;58.948;2022-12-07T06:51:29;99065.78;;;-19.67;58.47
49943;BME280;36011;53.362;58.948;2022-12-07T06:54:36;99064.59;;;-19.52;58.01
49943;BME280;36011;53.362;58.948;2022-12-07T06:57:38;99065.66;;;-19.39;57.90
49943;BME280;36011;53.362;58.948;2022-12-07T07:00:39;99066.97;;;-19.24;58.21
49943;BME280;36011;53.362;58.948;2022-12-07T07:03:44;99063.53;;;-19.06;58.50
49943;BME280;36011;53.362;58.948;2022-12-07T07:06:45;99060.31;;;-18.84;58.17
49943;BME280;36011;53.362;58.948;2022-12-07T07:09:48;99051.50;;;-18.69;58.25
49943;BME280;36011;53.362;58.948;2022-12-07T07:12:53;99050.47;;;-16.37;58.03
49943;BME280;36011;53.362;58.948;2022-12-07T07:15:54;99049.16;;;-11.22;51.87
49943;BME280;36011;53.362;58.948;2022-12-07T07:18:55;99047.09;;;-6.74;45.73
49943;BME280;36011;53.362;58.948;2022-12-07T07:22:02;99042.66;;;-3.23;41.60
49943;BME280;36011;53.362;58.948;2022-12-07T07:25:03;99053.09;;;-0.53;39.82
49943;BME280;36011;53.362;58.948;2022-12-07T07:28:05;99042.06;;;1.29;38.70
49943;BME280;36011;53.362;58.948;2022-12-07T07:31:06;99053.03;;;2.74;38.20
49943;BME280;36011;53.362;58.948;2022-12-07T07:34:10;99047.69;;;4.02;36.44
49943;BME280;36011;53.362;58.948;2022-12-07T07:37:11;99052.25;;;5.11;37.16
49943;BME280;36011;53.362;58.948;2022-12-07T07:40:14;99052.31;;;5.96;36.04
49943;BME280;36011;53.362;58.948;2022-12-07T07:43:16;99041.91;;;6.61;35.59
49943;BME280;36011;53.362;58.948;2022-12-07T07:46:25;99043.75;;;7.12;33.80
49943;BME280;36011;53.362;58.948;2022-12-07T07:49:26;99035.75;;;7.71;34.30
49943;BME280;36011;53.362;58.948;2022-12-07T07:52:32;99027.31;;;8.01;32.55
49943;BME280;36011;53.362;58.948;2022-12-07T07:55:39;99020.41;;;8.39;33.04
49943;BME280;36011;53.362;58.948;2022-12-07T07:58:43;99029.91;;;8.84;31.40
49943;BME280;36011;53.362;58.948;2022-12-07T08:01:49;99025.97;;;9.37;31.55
49943;BME280;36011;53.362;58.948;2022-12-07T08:04:55;99015.19;;;9.81;30.08
49943;BME280;36011;53.362;58.948;2022-12-07T08:08:02;99013.94;;;10.25;30.01
49943;BME280;36011;53.362;58.948;2022-12-07T08:11:11;99007.34;;;10.42;26.48
49943;BME280;36011;53.362;58.948;2022-12-07T08:14:17;99011.72;;;10.41;28.47
49943;BME280;36011;53.362;58.948;2022-12-07T08:17:21;99001.88;;;10.48;29.25
49943;BME280;36011;53.362;58.948;2022-12-07T08:20:22;98994.63;;;10.56;28.88
49943;BME280;36011;53.362;58.948;2022-12-07T08:23:29;98981.97;;;10.67;28.37
49943;BME280;36011;53.362;58.948;2022-12-07T08:26:31;98981.19;;;10.92;27.29
49943;BME280;36011;53.362;58.948;2022-12-07T08:29:35;98984.94;;;11.11;26.28
49943;BME280;36011;53.362;58.948;2022-12-07T08:32:39;98993.06;;;11.80;24.97
49943;BME280;36011;53.362;58.948;2022-12-07T08:35:41;98989.19;;;12.16;24.21
49943;BME280;36011;53.362;58.948;2022-12-07T08:38:47;98987.13;;;12.24;22.73
49943;BME280;36011;53.362;58.948;2022-12-07T08:41:53;98984.78;;;11.93;22.84
49943;BME280;36011;53.362;58.948;2022-12-07T08:44:57;98984.31;;;11.80;23.31
49943;BME280;36011;53.362;58.948;2022-12-07T08:48:06;98976.22;;;11.61;21.87
49943;BME280;36011;53.362;58.948;2022-12-07T08:51:14;98965.44;;;11.42;22.71
49943;BME280;36011;53.362;58.948;2022-12-07T08:54:17;98982.22;;;11.64;22.27
49943;BME280;36011;53.362;58.948;2022-12-07T08:57:19;98974.69;;;11.79;22.18
49943;BME280;36011;53.362;58.948;2022-12-07T09:00:21;98967.03;;;11.71;21.92
49943;BME280;36011;53.362;58.948;2022-12-07T09:03:28;98967.53;;;11.57;21.81
49943;BME280;36011;53.362;58.948;2022-12-07T09:06:35;98960.28;;;11.39;21.55
49943;BME280;36011;53.362;58.948;2022-12-07T09:09:37;98956.59;;;10.93;21.62
49943;BME280;36011;53.362;58.948;2022-12-07T09:12:44;98967.78;;;10.43;21.55
49943;BME280;36011;53.362;58.948;2022-12-07T09:15:48;98968.50;;;9.58;21.77
49943;BME280;36011;53.362;58.948;2022-12-07T09:18:53;98961.78;;;9.13;21.87
49943;BME280;36011;53.362;58.948;2022-12-07T09:21:59;98951.88;;;8.90;21.06
49943;BME280;36011;53.362;58.948;2022-12-07T09:25:01;98958.75;;;8.94;21.49
49943;BME280;36011;53.362;58.948;2022-12-07T09:28:04;98946.84;;;8.81;21.47
49943;BME280;36011;53.362;58.948;2022-12-07T09:31:11;98950.66;;;8.68;21.01
49943;BME280;36011;53.362;58.948;2022-12-07T09:34:15;98947.69;;;8.46;21.30
49943;BME280;36011;53.362;58.948;2022-12-07T09:37:16;98940.84;;;8.37;21.17
49943;BME280;36011;53.362;58.948;2022-12-07T09:40:20;98935.81;;;8.28;21.09
49943;BME280;36011;53.362;58.948;2022-12-07T09:43:26;98938.09;;;8.04;21.09
49943;BME280;36011;53.362;58.948;2022-12-07T09:46:40;98943.97;;;7.74;20.81
49943;BME280;36011;53.362;58.948;2022-12-07T09:49:43;98933.91;;;7.54;21.07
49943;BME280;36011;53.362;58.948;2022-12-07T09:52:50;98939.22;;;7.49;20.90
49943;BME280;36011;53.362;58.948;2022-12-07T09:55:52;98930.34;;;7.56;20.96
49943;BME280;36011;53.362;58.948;2022-12-07T09:59:17;98946.69;;;7.69;20.30
49943;BME280;36011;53.362;58.948;2022-12-07T10:05:48;98933.63;;;0.70;25.12
49943;BME280;36011;53.362;58.948;2022-12-07T10:08:50;98920.78;;;-2.86;29.25
49943;BME280;36011;53.362;58.948;2022-12-07T10:12:14;98930.44;;;-5.38;30.79
49943;BME280;36011;53.362;58.948;2022-12-07T10:15:21;98929.72;;;-7.33;33.83
49943;BME280;36011;53.362;58.948;2022-12-07T10:18:27;98927.81;;;-8.82;34.60
49943;BME280;36011;53.362;58.948;2022-12-07T10:21:31;98926.72;;;-9.98;35.87
49943;BME280;36011;53.362;58.948;2022-12-07T10:24:38;98921.63;;;-10.99;36.58
49943;BME280;36011;53.362;58.948;2022-12-07T10:27:43;98925.59;;;-11.83;37.50
49943;BME280;36011;53.362;58.948;2022-12-07T10:31:02;98928.25;;;-12.55;37.40
49943;BME280;36011;53.362;58.948;2022-12-07T10:34:29;98936.31;;;-13.19;37.74
49943;BME280;36011;53.362;58.948;2022-12-07T10:37:40;98932.44;;;-13.68;38.34
49943;BME280;36011;53.362;58.948;2022-12-07T10:40:44;98937.38;;;-14.10;38.72
49943;BME280;36011;53.362;58.948;2022-12-07T10:43:52;98946.88;;;-14.45;38.38
49943;BME280;36011;53.362;58.948;2022-12-07T11:13:19;98944.63;;;-16.94;40.84
49943;BME280;36011;53.362;58.948;2022-12-07T11:16:38;98958.88;;;-17.16;41.04
49943;BME280;36011;53.362;58.948;2022-12-07T11:29:49;98965.31;;;-17.96;41.47
49943;BME280;36011;53.362;58.948;2022-12-07T11:36:37;98966.63;;;-18.22;42.12
49943;BME280;36011;53.362;58.948;2022-12-07T11:39:51;98957.84;;;-18.37;42.16
49943;BME280;36011;53.362;58.948;2022-12-07T11:46:06;98955.00;;;-18.72;42.99
49943;BME280;36011;53.362;58.948;2022-12-07T11:49:23;98961.44;;;-18.76;42.84
49943;BME280;36011;53.362;58.948;2022-12-07T11:52:40;98969.97;;;-18.84;42.71
49943;BME280;36011;53.362;58.948;2022-12-07T11:55:57;98965.69;;;-18.95;43.11
49943;BME280;36011;53.362;58.948;2022-12-07T12:02:18;98955.50;;;-19.17;43.64
49943;BME280;36011;53.362;58.948;2022-12-07T12:05:25;98954.38;;;-19.21;43.53
49943;BME280;36011;53.362;58.948;2022-12-07T12:08:31;98945.19;;;-19.31;43.23
49943;BME280;36011;53.362;58.948;2022-12-07T12:18:21;98947.75;;;-19.60;43.55
49943;BME280;36011;53.362;58.948;2022-12-07T12:21:30;98954.00;;;-19.75;43.89
49943;BME280;36011;53.362;58.948;2022-12-07T12:24:34;98947.41;;;-19.94;43.88
49943;BME280;36011;53.362;58.948;2022-12-07T12:27:39;98961.66;;;-20.03;44.13
49943;BME280;36011;53.362;58.948;2022-12-07T12:30:43;98966.75;;;-20.11;44.55
49943;BME280;36011;53.362;58.948;2022-12-07T12:33:50;98965.03;;;-20.21;44.20
49943;BME280;36011;53.362;58.948;2022-12-07T12:36:54;98960.09;;;-20.30;44.24
49943;BME280;36011;53.362;58.948;2022-12-07T12:43:39;98953.44;;;-20.40;44.86
49943;BME280;36011;53.362;58.948;2022-12-07T12:53:26;98948.78;;;-20.64;44.91
49943;BME280;36011;53.362;58.948;2022-12-07T13:03:00;98936.13;;;-20.85;44.80
49943;BME280;36011;53.362;58.948;2022-12-07T13:06:32;98944.84;;;-20.90;45.46
49943;BME280;36011;53.362;58.948;2022-12-07T13:09:36;98944.28;;;-20.96;44.87
49943;BME280;36011;53.362;58.948;2022-12-07T13:12:43;98939.78;;;-21.00;44.51
49943;BME280;36011;53.362;58.948;2022-12-07T13:15:49;98947.88;;;-21.02;45.16
49943;BME280;36011;53.362;58.948;2022-12-07T13:18:53;98939.19;;;-21.06;44.81
49943;BME280;36011;53.362;58.948;2022-12-07T13:21:55;98936.41;;;-21.09;45.00
49943;BME280;36011;53.362;58.948;2022-12-07T13:25:10;98937.16;;;-21.10;45.38
49943;BME280;36011;53.362;58.948;2022-12-07T13:28:18;98935.13;;;-21.14;45.41
49943;BME280;36011;53.362;58.948;2022-12-07T13:34:52;98925.50;;;-21.28;45.27
49943;BME280;36011;53.362;58.948;2022-12-07T13:37:53;98937.53;;;-21.24;45.34
49943;BME280;36011;53.362;58.948;2022-12-07T13:44:18;98932.13;;;-21.29;45.76
49943;BME280;36011;53.362;58.948;2022-12-07T13:50:31;98923.81;;;-21.38;45.45
49943;BME280;36011;53.362;58.948;2022-12-07T13:53:32;98916.16;;;-21.40;46.13
49943;BME280;36011;53.362;58.948;2022-12-07T13:56:37;98918.56;;;-21.41;45.57
49943;BME280;36011;53.362;58.948;2022-12-07T13:59:40;98925.50;;;-21.47;45.26
49943;BME280;36011;53.362;58.948;2022-12-07T14:02:58;98917.44;;;-21.54;46.19
49943;BME280;36011;53.362;58.948;2022-12-07T14:09:23;98927.13;;;-21.57;46.02
49943;BME280;36011;53.362;58.948;2022-12-07T14:12:29;98913.41;;;-21.70;45.12
49943;BME280;36011;53.362;58.948;2022-12-07T14:15:33;98928.66;;;-21.67;45.47
49943;BME280;36011;53.362;58.948;2022-12-07T14:18:41;98922.19;;;-21.74;45.89
49943;BME280;36011;53.362;58.948;2022-12-07T14:21:42;98915.19;;;-21.78;45.28
49943;BME280;36011;53.362;58.948;2022-12-07T14:24:48;98915.50;;;-21.84;45.56
49943;BME280;36011;53.362;58.948;2022-12-07T14:27:55;98919.75;;;-21.83;45.91
49943;BME280;36011;53.362;58.948;2022-12-07T14:30:59;98911.97;;;-21.86;46.05
49943;BME280;36011;53.362;58.948;2022-12-07T14:34:01;98919.47;;;-21.86;45.96
49943;BME280;36011;53.362;58.948;2022-12-07T14:37:02;98917.72;;;-21.87;45.57
49943;BME280;36011;53.362;58.948;2022-12-07T14:40:25;98904.66;;;-21.93;46.01
49943;BME280;36011;53.362;58.948;2022-12-07T14:43:30;98905.84;;;-21.98;45.79
49943;BME280;36011;53.362;58.948;2022-12-07T14:46:31;98911.28;;;-22.02;45.92
49943;BME280;36011;53.362;58.948;2022-12-07T14:49:35;98908.22;;;-22.08;46.24
49943;BME280;36011;53.362;58.948;2022-12-07T14:52:36;98889.47;;;-22.22;46.32
49943;BME280;36011;53.362;58.948;2022-12-07T14:55:38;98891.53;;;-22.18;45.80
49943;BME280;36011;53.362;58.948;2022-12-07T14:58:44;98895.91;;;-22.15;46.55
49943;BME280;36011;53.362;58.948;2022-12-07T15:01:45;98890.91;;;-22.15;46.58
49943;BME280;36011;53.362;58.948;2022-12-07T15:04:49;98889.91;;;-22.17;46.55
49943;BME280;36011;53.362;58.948;2022-12-07T15:07:51;98890.03;;;-22.16;47.02
49943;BME280;36011;53.362;58.948;2022-12-07T15:10:53;98890.72;;;-22.08;46.52
49943;BME280;36011;53.362;58.948;2022-12-07T15:13:56;98890.31;;;-22.04;46.87
49943;BME280;36011;53.362;58.948;2022-12-07T15:17:14;98886.78;;;-22.06;46.49
49943;BME280;36011;53.362;58.948;2022-12-07T15:20:17;98881.78;;;-22.06;46.55
49943;BME280;36011;53.362;58.948;2022-12-07T15:23:22;98883.91;;;-22.19;46.33
49943;BME280;36011;53.362;58.948;2022-12-07T15:26:25;98890.91;;;-22.15;46.36
49943;BME280;36011;53.362;58.948;2022-12-07T15:29:33;98892.25;;;-22.19;46.49
49943;BME280;36011;53.362;58.948;2022-12-07T15:32:35;98899.47;;;-22.22;46.75
49943;BME280;36011;53.362;58.948;2022-12-07T15:35:43;98890.38;;;-22.30;46.76
49943;BME280;36011;53.362;58.948;2022-12-07T15:38:47;98899.19;;;-22.34;46.87
49943;BME280;36011;53.362;58.948;2022-12-07T15:41:51;98893.91;;;-22.37;46.78
49943;BME280;36011;53.362;58.948;2022-12-07T15:44:55;98884.13;;;-22.44;46.79
49943;BME280;36011;53.362;58.948;2022-12-07T15:48:09;98893.47;;;-22.41;46.90
49943;BME280;36011;53.362;58.948;2022-12-07T15:51:13;98874.84;;;-22.45;47.22
49943;BME280;36011;53.362;58.948;2022-12-07T15:54:26;98872.63;;;-22.42;47.25
49943;BME280;36011;53.362;58.948;2022-12-07T15:57:31;98881.16;;;-22.40;46.95
49943;BME280;36011;53.362;58.948;2022-12-07T16:00:40;98876.31;;;-22.38;47.44
49943;BME280;36011;53.362;58.948;2022-12-07T16:03:47;98875.41;;;-22.39;47.17
49943;BME280;36011;53.362;58.948;2022-12-07T16:06:48;98877.47;;;-22.35;47.36
49943;BME280;36011;53.362;58.948;2022-12-07T16:09:53;98870.44;;;-22.39;47.04
49943;BME280;36011;53.362;58.948;2022-12-07T16:12:57;98867.81;;;-22.40;47.43
49943;BME280;36011;53.362;58.948;2022-12-07T16:16:06;98862.97;;;-22.48;47.57
49943;BME280;36011;53.362;58.948;2022-12-07T16:19:08;98858.72;;;-22.49;47.41
49943;BME280;36011;53.362;58.948;2022-12-07T16:22:14;98860.78;;;-22.53;47.48
49943;BME280;36011;53.362;58.948;2022-12-07T16:25:15;98850.22;;;-22.59;47.28
49943;BME280;36011;53.362;58.948;2022-12-07T16:28:22;98846.13;;;-22.68;47.63
49943;BME280;36011;53.362;58.948;2022-12-07T16:31:28;98853.31;;;-22.71;47.56
49943;BME280;36011;53.362;58.948;2022-12-07T16:34:36;98848.50;;;-22.78;47.65
49943;BME280;36011;53.362;58.948;2022-12-07T16:37:41;98849.97;;;-22.80;47.64
49943;BME280;36011;53.362;58.948;2022-12-07T16:40:42;98848.78;;;-22.83;47.59
49943;BME280;36011;53.362;58.948;2022-12-07T16:43:45;98848.78;;;-22.83;47.34
49943;BME280;36011;53.362;58.948;2022-12-07T16:46:48;98837.97;;;-23.01;47.42
49943;BME280;36011;53.362;58.948;2022-12-07T16:49:49;98854.94;;;-22.88;47.86
49943;BME280;36011;53.362;58.948;2022-12-07T16:52:51;98845.03;;;-22.97;47.41
49943;BME280;36011;53.362;58.948;2022-12-07T16:55:53;98850.56;;;-22.91;47.67
49943;BME280;36011;53.362;58.948;2022-12-07T16:59:00;98847.03;;;-22.93;47.58
49943;BME280;36011;53.362;58.948;2022-12-07T17:02:02;98847.03;;;-22.93;47.46
49943;BME280;36011;53.362;58.948;2022-12-07T17:05:06;98853.63;;;-22.94;47.33
49943;BME280;36011;53.362;58.948;2022-12-07T17:08:12;98845.03;;;-22.97;47.13
49943;BME280;36011;53.362;58.948;2022-12-07T17:11:23;98835.03;;;-22.97;47.51
49943;BME280;36011;53.362;58.948;2022-12-07T17:14:24;98834.75;;;-23.00;47.52
49943;BME280;36011;53.362;58.948;2022-12-07T17:17:45;98840.28;;;-22.94;47.67
49943;BME280;36011;53.362;58.948;2022-12-07T17:20:49;98836.97;;;-22.95;47.86
49943;BME280;36011;53.362;58.948;2022-12-07T17:23:53;98833.44;;;-23.05;47.34
49943;BME280;36011;53.362;58.948;2022-12-07T17:27:02;98829.31;;;-23.14;47.67
49943;BME280;36011;53.362;58.948;2022-12-07T17:30:05;98830.78;;;-23.16;47.59
49943;BME280;36011;53.362;58.948;2022-12-07T17:33:07;98834.75;;;-23.18;47.42
49943;BME280;36011;53.362;58.948;2022-12-07T17:36:20;98821.25;;;-23.20;47.76
49943;BME280;36011;53.362;58.948;2022-12-07T17:39:27;98831.53;;;-23.17;48.02
49943;BME280;36011;53.362;58.948;2022-12-07T17:42:30;98829.03;;;-23.17;47.89
49943;BME280;36011;53.362;58.948;2022-12-07T17:45:37;98827.28;;;-23.18;48.05
49943;BME280;36011;53.362;58.948;2022-12-07T17:48:38;98826.53;;;-23.17;47.92
49943;BME280;36011;53.362;58.948;2022-12-07T17:51:39;98816.00;;;-23.23;48.04
49943;BME280;36011;53.362;58.948;2022-12-07T17:55:02;98822.88;;;-23.20;47.59
49943;BME280;36011;53.362;58.948;2022-12-07T17:58:05;98817.16;;;-23.28;47.80
49943;BME280;36011;53.362;58.948;2022-12-07T18:01:09;98813.22;;;-23.26;47.75
49943;BME280;36011;53.362;58.948;2022-12-07T18:04:13;98816.13;;;-23.30;47.95
49943;BME280;36011;53.362;58.948;2022-12-07T18:07:14;98813.34;;;-23.33;47.69
49943;BME280;36011;53.362;58.948;2022-12-07T18:10:18;98812.47;;;-23.33;47.82